sensor_id;sensor_type;location;lat;lon;timestamp;P1;durP1;ratioP1;P2;durP2;ratioP2
71955;SDS011;59829;50.562;6.258;2023-10-13T00:01:02;4.63;;;2.60;;
71955;SDS011;59829;50.562;6.258;2023-10-13T00:11:06;4.25;;;2.53;;
71955;SDS011;59829;50.562;6.258;2023-10-13T00:21:12;5.45;;;2.58;;
71955;SDS011;59829;50.562;6.258;2023-10-13T00:31:12;6.15;;;2.63;;
71955;SDS011;59829;50.562;6.258;2023-10-13T00:41:14;4.83;;;2.43;;
71955;SDS011;59829;50.562;6.258;2023-10-13T00:51:16;6.95;;;3.33;;
71955;SDS011;59829;50.562;6.258;2023-10-13T01:01:34;5.72;;;2.80;;
71955;SDS011;59829;50.562;6.258;2023-10-13T01:11:36;4.43;;;2.47;;
71955;SDS011;59829;50.562;6.258;2023-10-13T01:21:38;6.57;;;2.53;;
71955;SDS011;59829;50.562;6.258;2023-10-13T01:31:43;7.45;;;3.00;;
71955;SDS011;59829;50.562;6.258;2023-10-13T01:41:48;5.57;;;2.60;;
71955;SDS011;59829;50.562;6.258;2023-10-13T01:51:55;6.15;;;2.67;;
71955;SDS011;59829;50.562;6.258;2023-10-13T02:01:55;8.45;;;3.20;;
71955;SDS011;59829;50.562;6.258;2023-10-13T02:11:58;4.78;;;2.60;;
71955;SDS011;59829;50.562;6.258;2023-10-13T02:21:58;4.78;;;2.88;;
71955;SDS011;59829;50.562;6.258;2023-10-13T02:31:59;5.85;;;2.80;;
71955;SDS011;59829;50.562;6.258;2023-10-13T02:42:04;5.63;;;2.42;;
71955;SDS011;59829;50.562;6.258;2023-10-13T03:02:09;4.28;;;2.00;;
71955;SDS011;59829;50.562;6.258;2023-10-13T03:12:23;4.47;;;2.13;;
71955;SDS011;59829;50.562;6.258;2023-10-13T03:22:33;5.80;;;2.78;;
71955;SDS011;59829;50.562;6.258;2023-10-13T03:32:33;4.35;;;2.10;;
71955;SDS011;59829;50.562;6.258;2023-10-13T03:42:34;5.88;;;2.65;;
71955;SDS011;59829;50.562;6.258;2023-10-13T03:52:39;5.38;;;2.28;;
71955;SDS011;59829;50.562;6.258;2023-10-13T04:02:40;3.88;;;1.73;;
71955;SDS011;59829;50.562;6.258;2023-10-13T04:12:46;4.57;;;1.90;;
71955;SDS011;59829;50.562;6.258;2023-10-13T04:23:05;4.68;;;2.10;;
71955;SDS011;59829;50.562;6.258;2023-10-13T04:33:19;4.25;;;1.80;;
71955;SDS011;59829;50.562;6.258;2023-10-13T04:43:34;6.53;;;2.22;;
71955;SDS011;59829;50.562;6.258;2023-10-13T04:53:54;4.68;;;1.83;;
71955;SDS011;59829;50.562;6.258;2023-10-13T05:04:04;8.40;;;2.22;;
71955;SDS011;59829;50.562;6.258;2023-10-13T05:14:14;7.55;;;2.70;;
71955;SDS011;59829;50.562;6.258;2023-10-13T05:24:32;6.07;;;2.67;;
71955;SDS011;59829;50.562;6.258;2023-10-13T05:34:51;5.50;;;2.22;;
71955;SDS011;59829;50.562;6.258;2023-10-13T05:45:10;7.95;;;3.45;;
71955;SDS011;59829;50.562;6.258;2023-10-13T05:55:17;4.80;;;2.10;;
71955;SDS011;59829;50.562;6.258;2023-10-13T06:05:56;5.28;;;2.83;;
71955;SDS011;59829;50.562;6.258;2023-10-13T06:16:15;6.95;;;2.85;;
71955;SDS011;59829;50.562;6.258;2023-10-13T06:26:35;5.25;;;2.10;;
71955;SDS011;59829;50.562;6.258;2023-10-13T06:36:54;3.95;;;1.67;;
71955;SDS011;59829;50.562;6.258;2023-10-13T06:46:55;4.40;;;1.88;;
71955;SDS011;59829;50.562;6.258;2023-10-13T06:56:55;7.63;;;2.17;;
71955;SDS011;59829;50.562;6.258;2023-10-13T07:06:56;4.07;;;1.83;;
71955;SDS011;59829;50.562;6.258;2023-10-13T07:17:03;6.78;;;1.80;;
71955;SDS011;59829;50.562;6.258;2023-10-13T07:27:05;4.43;;;1.98;;
71955;SDS011;59829;50.562;6.258;2023-10-13T07:37:06;5.53;;;1.65;;
71955;SDS011;59829;50.562;6.258;2023-10-13T07:47:12;3.58;;;1.88;;
71955;SDS011;59829;50.562;6.258;2023-10-13T07:57:14;3.27;;;1.67;;
71955;SDS011;59829;50.562;6.258;2023-10-13T08:07:14;4.53;;;2.20;;
71955;SDS011;59829;50.562;6.258;2023-10-13T08:17:15;4.13;;;2.00;;
71955;SDS011;59829;50.562;6.258;2023-10-13T08:27:16;6.28;;;2.45;;
71955;SDS011;59829;50.562;6.258;2023-10-13T08:37:33;6.53;;;2.30;;
71955;SDS011;59829;50.562;6.258;2023-10-13T08:47:50;8.25;;;3.00;;
71955;SDS011;59829;50.562;6.258;2023-10-13T08:57:54;5.15;;;2.30;;
71955;SDS011;59829;50.562;6.258;2023-10-13T09:08:03;4.88;;;2.33;;
71955;SDS011;59829;50.562;6.258;2023-10-13T09:18:09;5.50;;;2.65;;
71955;SDS011;59829;50.562;6.258;2023-10-13T09:28:16;4.60;;;2.30;;
71955;SDS011;59829;50.562;6.258;2023-10-13T09:38:18;5.40;;;2.50;;
71955;SDS011;59829;50.562;6.258;2023-10-13T09:48:20;6.25;;;2.50;;
71955;SDS011;59829;50.562;6.258;2023-10-13T09:58:26;4.47;;;2.50;;
71955;SDS011;59829;50.562;6.258;2023-10-13T10:08:36;5.18;;;2.50;;
71955;SDS011;59829;50.562;6.258;2023-10-13T10:18:38;4.80;;;2.60;;
71955;SDS011;59829;50.562;6.258;2023-10-13T10:28:40;7.20;;;3.08;;
71955;SDS011;59829;50.562;6.258;2023-10-13T10:38:56;7.22;;;2.70;;
71955;SDS011;59829;50.562;6.258;2023-10-13T10:49:03;4.32;;;2.17;;
71955;SDS011;59829;50.562;6.258;2023-10-13T10:59:05;5.40;;;2.20;;
71955;SDS011;59829;50.562;6.258;2023-10-13T11:09:23;4.72;;;2.20;;
71955;SDS011;59829;50.562;6.258;2023-10-13T11:19:45;6.07;;;2.13;;
71955;SDS011;59829;50.562;6.258;2023-10-13T11:29:45;4.55;;;2.00;;
71955;SDS011;59829;50.562;6.258;2023-10-13T11:39:52;5.72;;;2.15;;
71955;SDS011;59829;50.562;6.258;2023-10-13T11:49:52;5.88;;;2.55;;
71955;SDS011;59829;50.562;6.258;2023-10-13T11:59:56;5.10;;;2.17;;
71955;SDS011;59829;50.562;6.258;2023-10-13T12:24:34;7.30;;;2.70;;
71955;SDS011;59829;50.562;6.258;2023-10-13T12:34:35;6.25;;;2.63;;
71955;SDS011;59829;50.562;6.258;2023-10-13T12:44:54;5.30;;;2.17;;
71955;SDS011;59829;50.562;6.258;2023-10-13T12:55:13;4.80;;;2.03;;
71955;SDS011;59829;50.562;6.258;2023-10-13T13:05:19;6.40;;;2.13;;
71955;SDS011;59829;50.562;6.258;2023-10-13T13:15:22;4.35;;;1.98;;
71955;SDS011;59829;50.562;6.258;2023-10-13T13:25:23;4.53;;;1.90;;
71955;SDS011;59829;50.562;6.258;2023-10-13T13:35:30;3.63;;;1.92;;
71955;SDS011;59829;50.562;6.258;2023-10-13T13:45:34;3.58;;;1.80;;
71955;SDS011;59829;50.562;6.258;2023-10-13T13:55:41;5.38;;;2.28;;
71955;SDS011;59829;50.562;6.258;2023-10-13T14:05:42;6.15;;;2.05;;
71955;SDS011;59829;50.562;6.258;2023-10-13T14:15:43;4.03;;;1.77;;
71955;SDS011;59829;50.562;6.258;2023-10-13T14:25:44;3.10;;;1.70;;
71955;SDS011;59829;50.562;6.258;2023-10-13T14:35:44;4.05;;;1.70;;
71955;SDS011;59829;50.562;6.258;2023-10-13T14:45:47;3.55;;;1.80;;
71955;SDS011;59829;50.562;6.258;2023-10-13T14:55:47;4.78;;;1.77;;
71955;SDS011;59829;50.562;6.258;2023-10-13T15:05:48;3.80;;;2.00;;
71955;SDS011;59829;50.562;6.258;2023-10-13T15:15:48;3.55;;;1.80;;
71955;SDS011;59829;50.562;6.258;2023-10-13T15:25:48;5.32;;;2.20;;
71955;SDS011;59829;50.562;6.258;2023-10-13T15:35:51;3.35;;;1.90;;
71955;SDS011;59829;50.562;6.258;2023-10-13T15:45:52;4.45;;;1.55;;
71955;SDS011;59829;50.562;6.258;2023-10-13T15:55:52;4.20;;;1.80;;
71955;SDS011;59829;50.562;6.258;2023-10-13T16:05:52;2.75;;;1.33;;
71955;SDS011;59829;50.562;6.258;2023-10-13T16:15:53;3.03;;;1.63;;
71955;SDS011;59829;50.562;6.258;2023-10-13T16:25:53;3.50;;;1.52;;
71955;SDS011;59829;50.562;6.258;2023-10-13T16:35:56;3.08;;;1.70;;
71955;SDS011;59829;50.562;6.258;2023-10-13T16:45:57;3.33;;;1.52;;
71955;SDS011;59829;50.562;6.258;2023-10-13T16:56:00;5.35;;;1.70;;
71955;SDS011;59829;50.562;6.258;2023-10-13T17:06:01;6.72;;;1.70;;
71955;SDS011;59829;50.562;6.258;2023-10-13T17:16:01;4.28;;;1.95;;
71955;SDS011;59829;50.562;6.258;2023-10-13T17:26:10;3.70;;;1.88;;
71955;SDS011;59829;50.562;6.258;2023-10-13T17:36:12;3.03;;;1.77;;
71955;SDS011;59829;50.562;6.258;2023-10-13T17:46:13;3.80;;;1.80;;
71955;SDS011;59829;50.562;6.258;2023-10-13T17:56:14;4.53;;;2.07;;
71955;SDS011;59829;50.562;6.258;2023-10-13T18:06:22;5.45;;;1.80;;
71955;SDS011;59829;50.562;6.258;2023-10-13T18:16:23;4.95;;;2.10;;
71955;SDS011;59829;50.562;6.258;2023-10-13T18:26:25;2.40;;;1.53;;
71955;SDS011;59829;50.562;6.258;2023-10-13T18:36:26;4.18;;;1.88;;
71955;SDS011;59829;50.562;6.258;2023-10-13T18:46:29;6.78;;;2.47;;
71955;SDS011;59829;50.562;6.258;2023-10-13T18:56:30;3.83;;;1.90;;
71955;SDS011;59829;50.562;6.258;2023-10-13T19:06:33;7.05;;;2.40;;
71955;SDS011;59829;50.562;6.258;2023-10-13T19:16:33;5.03;;;1.92;;
71955;SDS011;59829;50.562;6.258;2023-10-13T19:26:35;7.83;;;2.60;;
71955;SDS011;59829;50.562;6.258;2023-10-13T19:36:37;8.83;;;2.80;;
71955;SDS011;59829;50.562;6.258;2023-10-13T19:46:37;9.80;;;2.95;;
71955;SDS011;59829;50.562;6.258;2023-10-13T19:56:37;8.45;;;2.95;;
71955;SDS011;59829;50.562;6.258;2023-10-13T20:06:39;7.57;;;2.70;;
71955;SDS011;59829;50.562;6.258;2023-10-13T20:16:40;4.85;;;2.63;;
71955;SDS011;59829;50.562;6.258;2023-10-13T20:26:40;8.75;;;2.80;;
71955;SDS011;59829;50.562;6.258;2023-10-13T20:36:45;5.07;;;2.28;;
71955;SDS011;59829;50.562;6.258;2023-10-13T20:46:45;5.97;;;2.40;;
71955;SDS011;59829;50.562;6.258;2023-10-13T20:56:46;6.70;;;2.63;;
71955;SDS011;59829;50.562;6.258;2023-10-13T21:06:46;5.28;;;2.45;;
71955;SDS011;59829;50.562;6.258;2023-10-13T21:16:49;5.60;;;2.55;;
71955;SDS011;59829;50.562;6.258;2023-10-13T21:26:52;7.70;;;3.10;;
71955;SDS011;59829;50.562;6.258;2023-10-13T21:36:52;8.48;;;2.88;;
71955;SDS011;59829;50.562;6.258;2023-10-13T21:46:52;5.60;;;2.63;;
71955;SDS011;59829;50.562;6.258;2023-10-13T21:56:53;6.72;;;3.30;;
71955;SDS011;59829;50.562;6.258;2023-10-13T22:06:53;8.73;;;3.33;;
71955;SDS011;59829;50.562;6.258;2023-10-13T22:16:54;7.67;;;3.70;;
71955;SDS011;59829;50.562;6.258;2023-10-13T22:26:54;6.50;;;3.00;;
71955;SDS011;59829;50.562;6.258;2023-10-13T22:36:54;8.13;;;3.90;;
71955;SDS011;59829;50.562;6.258;2023-10-13T22:46:54;9.27;;;4.35;;
71955;SDS011;59829;50.562;6.258;2023-10-13T22:56:55;5.78;;;2.95;;
71955;SDS011;59829;50.562;6.258;2023-10-13T23:06:56;5.40;;;2.83;;
71955;SDS011;59829;50.562;6.258;2023-10-13T23:17:01;6.77;;;3.20;;
71955;SDS011;59829;50.562;6.258;2023-10-13T23:27:03;7.50;;;2.88;;
71955;SDS011;59829;50.562;6.258;2023-10-13T23:37:05;8.97;;;3.73;;
71955;SDS011;59829;50.562;6.258;2023-10-13T23:47:10;9.50;;;2.67;;
71955;SDS011;59829;50.562;6.258;2023-10-13T23:57:10;10.48;;;2.95;;
